Time;durP1;ratioP1;P1;durP2;ratioP2;P2;SDS_P1;SDS_P2;PMS_P1;PMS_P2;Temp;Humidity;BMP_temperature;BMP_pressure;BME280_temperature;BME280_humidity;BME280_pressure;Samples;Min_cycle;Max_cycle;Signal;HPM_P1;HPM_P2
2021/09/23 00:00:54;;;;;;;4.45;4.00;;;;;;;4.15;100.00;93801.47;2594486;22;19991;-80
2021/09/23 00:01:55;;;;;;;5.45;3.80;;;;;;;4.12;100.00;93802.94;2581716;23;20031;-78
2021/09/23 00:04:02;;;;;;;5.90;4.30;;;;;;;4.22;100.00;93797.03;2594739;22;20000;-78
2021/09/23 00:05:03;;;;;;;4.28;3.80;;;;;;;4.25;100.00;93800.84;2595217;22;20271;-77
2021/09/23 00:06:05;;;;;;;4.53;4.13;;;;;;;4.26;100.00;93802.38;2594605;22;20402;-77
2021/09/23 00:07:06;;;;;;;5.97;3.40;;;;;;;4.22;100.00;93802.34;2594168;22;19999;-79
2021/09/23 00:08:08;;;;;;;3.92;3.63;;;;;;;4.18;100.00;93798.88;2569410;23;20083;-77
2021/09/23 00:09:09;;;;;;;6.55;3.97;;;;;;;4.26;100.00;93794.44;2581965;22;20007;-76
2021/09/23 00:10:13;;;;;;;4.78;3.92;;;;;;;4.15;100.00;93802.22;2593936;22;20004;-79
2021/09/23 00:11:14;;;;;;;4.45;3.95;;;;;;;4.19;100.00;93792.44;2594163;22;20003;-76
2021/09/23 00:12:15;;;;;;;4.20;3.80;;;;;;;4.13;100.00;93796.53;2594620;22;20027;-80
2021/09/23 00:13:16;;;;;;;3.80;3.45;;;;;;;4.10;100.00;93807.81;2594410;22;20011;-79
2021/09/23 00:14:17;;;;;;;5.07;4.03;;;;;;;4.14;100.00;93807.88;2594675;22;20006;-78
2021/09/23 00:15:18;;;;;;;4.78;3.92;;;;;;;4.18;100.00;93806.81;2594236;22;20003;-77
2021/09/23 00:16:20;;;;;;;4.68;4.18;;;;;;;4.17;100.00;93802.66;2594165;22;20320;-76
2021/09/23 00:17:21;;;;;;;5.00;4.32;;;;;;;4.19;100.00;93808.31;2594257;22;20007;-78
2021/09/23 00:18:22;;;;;;;7.63;4.15;;;;;;;4.11;100.00;93808.59;2581733;23;20031;-77
2021/09/23 00:19:24;;;;;;;4.90;3.50;;;;;;;4.13;100.00;93803.72;2582086;22;20442;-78
2021/09/23 00:20:29;;;;;;;7.65;3.63;;;;;;;4.05;100.00;93802.84;2594124;22;20010;-79
2021/09/23 00:21:30;;;;;;;6.65;4.30;;;;;;;4.01;100.00;93794.09;2594194;22;20087;-78
2021/09/23 00:22:30;;;;;;;5.03;4.10;;;;;;;4.09;100.00;93802.91;2581623;23;20039;-77
2021/09/23 00:23:33;;;;;;;4.43;3.78;;;;;;;4.03;100.00;93794.50;2581921;23;20114;-77
2021/09/23 00:24:33;;;;;;;4.88;4.38;;;;;;;4.09;100.00;93792.31;2582262;22;20818;-76
2021/09/23 00:25:35;;;;;;;4.50;4.03;;;;;;;4.02;100.00;93799.03;2595099;22;20004;-76
2021/09/23 00:26:36;;;;;;;6.63;3.88;;;;;;;4.06;100.00;93793.03;2593892;22;20117;-76
2021/09/23 00:27:37;;;;;;;5.85;3.90;;;;;;;4.02;100.00;93791.09;2594265;22;20166;-77
2021/09/23 00:28:39;;;;;;;4.82;3.50;;;;;;;3.99;100.00;93785.75;2581965;23;20079;-75
2021/09/23 00:29:40;;;;;;;5.93;4.13;;;;;;;3.98;100.00;93781.56;2569809;22;20418;-78
2021/09/23 00:30:41;;;;;;;5.38;4.10;;;;;;;3.95;100.00;93783.06;2581355;22;20011;-79
2021/09/23 00:31:42;;;;;;;6.97;4.63;;;;;;;3.86;100.00;93782.53;2581420;23;20012;-77
2021/09/23 00:32:42;;;;;;;3.97;3.58;;;;;;;3.96;100.00;93783.84;2569263;23;20000;-76
2021/09/23 00:33:43;;;;;;;4.93;3.95;;;;;;;3.96;100.00;93770.59;2581748;22;20070;-77
2021/09/23 00:34:45;;;;;;;5.13;3.90;;;;;;;3.95;100.00;93779.63;2595408;22;20000;-76
2021/09/23 00:35:46;;;;;;;5.47;4.13;;;;;;;3.93;100.00;93777.38;2581615;23;20376;-77
2021/09/23 00:36:47;;;;;;;7.82;3.95;;;;;;;3.99;100.00;93772.53;2568754;22;20012;-76
2021/09/23 00:37:48;;;;;;;7.35;3.95;;;;;;;3.91;100.00;93771.69;2594306;22;20004;-82
2021/09/23 00:38:49;;;;;;;5.90;3.83;;;;;;;3.88;100.00;93768.97;2594454;22;20042;-77
2021/09/23 00:39:50;;;;;;;5.30;3.70;;;;;;;3.97;100.00;93775.53;2581978;23;20004;-78
2021/09/23 00:40:51;;;;;;;5.47;4.22;;;;;;;3.97;100.00;93767.59;2581852;23;20007;-76
2021/09/23 00:41:52;;;;;;;5.85;4.25;;;;;;;3.98;100.00;93766.47;2581287;23;20392;-76
2021/09/23 00:42:53;;;;;;;4.75;3.92;;;;;;;4.04;100.00;93766.94;2569072;23;20005;-77
2021/09/23 00:43:54;;;;;;;5.88;4.00;;;;;;;4.03;100.00;93768.03;2569651;23;20031;-78
2021/09/23 00:44:57;;;;;;;4.07;3.65;;;;;;;4.00;100.00;93766.88;2556742;23;20005;-79
2021/09/23 00:45:58;;;;;;;7.75;4.10;;;;;;;4.00;100.00;93755.56;2582182;22;20521;-80
2021/09/23 00:46:59;;;;;;;4.93;3.97;;;;;;;4.02;100.00;93758.59;2581682;23;20078;-78
2021/09/23 00:48:00;;;;;;;4.00;3.60;;;;;;;4.03;100.00;93760.09;2581465;22;20034;-77
2021/09/23 00:49:01;;;;;;;4.20;3.70;;;;;;;3.95;100.00;93753.19;2594383;22;20381;-77
2021/09/23 00:50:03;;;;;;;6.60;3.85;;;;;;;3.94;100.00;93763.00;2581244;23;20003;-78
2021/09/23 00:51:04;;;;;;;5.72;4.05;;;;;;;3.89;100.00;93758.03;2581889;22;20034;-79
2021/09/23 00:52:05;;;;;;;8.23;4.32;;;;;;;3.93;100.00;93758.09;2594299;22;20030;-78
2021/09/23 00:53:08;;;;;;;6.45;3.90;;;;;;;3.92;100.00;93761.84;2581548;23;20015;-77
2021/09/23 00:54:09;;;;;;;4.82;3.55;;;;;;;3.92;100.00;93759.97;2582144;22;20008;-80
2021/09/23 00:55:12;;;;;;;4.30;3.70;;;;;;;3.73;100.00;93760.84;2581657;23;20004;-77
2021/09/23 00:56:13;;;;;;;4.18;3.78;;;;;;;3.87;100.00;93757.63;2569809;22;20004;-78
2021/09/23 00:57:17;;;;;;;4.60;3.80;;;;;;;3.94;100.00;93762.25;2569276;23;20804;-77
2021/09/23 00:58:18;;;;;;;5.22;3.83;;;;;;;3.77;100.00;93766.94;2558060;23;20004;-77
2021/09/23 00:59:19;;;;;;;3.97;3.63;;;;;;;3.75;100.00;93768.41;2581987;22;20082;-81
2021/09/23 01:00:22;;;;;;;7.70;3.95;;;;;;;3.61;100.00;93762.94;2594249;22;20430;-77
2021/09/23 01:01:24;;;;;;;6.25;3.72;;;;;;;3.68;100.00;93770.94;2595054;22;20000;-81
2021/09/23 01:02:25;;;;;;;3.50;3.20;;;;;;;3.71;100.00;93763.06;2581830;23;20050;-79
2021/09/23 01:03:26;;;;;;;6.68;3.92;;;;;;;3.73;100.00;93768.78;2581825;22;20046;-80
2021/09/23 01:04:28;;;;;;;5.55;3.70;;;;;;;3.70;100.00;93774.78;2594180;22;20010;-78
2021/09/23 01:05:29;;;;;;;3.90;3.50;;;;;;;3.72;100.00;93769.88;2581797;23;19996;-77
2021/09/23 01:06:31;;;;;;;6.15;3.65;;;;;;;3.71;100.00;93765.72;2593995;22;20038;-79
2021/09/23 01:07:32;;;;;;;5.90;3.75;;;;;;;3.75;100.00;93758.59;2594054;22;20061;-79
2021/09/23 01:08:33;;;;;;;4.43;3.83;;;;;;;3.66;100.00;93763.38;2569284;23;20115;-75
2021/09/23 01:09:48;;;;;;;4.07;3.67;;;;;;;3.87;100.00;93759.53;2581514;22;20007;-77
2021/09/23 01:10:49;;;;;;;4.28;3.55;;;;;;;3.70;100.00;93756.25;2594679;22;19996;-79
2021/09/23 01:11:50;;;;;;;6.55;4.13;;;;;;;3.63;100.00;93750.09;2594243;22;20042;-77
2021/09/23 01:12:50;;;;;;;5.10;3.53;;;;;;;3.70;100.00;93755.50;2581385;22;20004;-79
2021/09/23 01:13:51;;;;;;;6.60;3.60;;;;;;;3.66;100.00;93744.13;2568997;23;20395;-80
2021/09/23 01:14:53;;;;;;;6.07;3.90;;;;;;;3.54;100.00;93743.19;2568811;23;20007;-81
2021/09/23 01:15:54;;;;;;;3.72;3.22;;;;;;;3.58;100.00;93737.97;2582267;22;20450;-81
2021/09/23 01:16:55;;;;;;;3.60;3.30;;;;;;;3.64;100.00;93741.81;2581595;23;20071;-81
2021/09/23 01:17:56;;;;;;;3.92;3.50;;;;;;;3.63;100.00;93742.94;2581615;22;20004;-82
2021/09/23 01:18:57;;;;;;;4.25;3.85;;;;;;;3.57;100.00;93738.31;2594651;22;20079;-80
2021/09/23 01:19:58;;;;;;;4.10;3.67;;;;;;;3.55;100.00;93736.00;2569240;23;20336;-81
2021/09/23 01:20:59;;;;;;;6.38;4.10;;;;;;;3.59;100.00;93733.44;2581754;22;20012;-82
2021/09/23 01:22:00;;;;;;;6.55;3.72;;;;;;;3.52;100.00;93736.75;2594323;22;20000;-83
2021/09/23 01:23:01;;;;;;;4.15;3.60;;;;;;;3.57;100.00;93739.09;2581615;22;20367;-81
2021/09/23 01:24:02;;;;;;;5.47;3.80;;;;;;;3.62;100.00;93738.78;2581665;23;20019;-83
2021/09/23 01:25:05;;;;;;;4.53;3.70;;;;;;;3.57;100.00;93738.31;2569522;23;20083;-77
2021/09/23 01:26:08;;;;;;;5.30;3.60;;;;;;;3.54;100.00;93735.25;2584937;22;20015;-79
2021/09/23 01:27:09;;;;;;;7.18;3.55;;;;;;;3.53;100.00;93736.38;2584175;23;20004;-79
2021/09/23 01:28:10;;;;;;;5.22;3.78;;;;;;;3.56;100.00;93739.41;2582598;22;20015;-83
2021/09/23 01:29:11;;;;;;;3.95;3.40;;;;;;;3.66;100.00;93744.88;2594614;22;20003;-82
2021/09/23 01:30:13;;;;;;;8.32;4.07;;;;;;;3.55;100.00;93741.31;2581710;22;20069;-82
2021/09/23 01:31:14;;;;;;;6.82;3.53;;;;;;;3.40;100.00;93740.34;2568999;23;20028;-81
2021/09/23 01:32:16;;;;;;;6.90;3.55;;;;;;;3.47;100.00;93737.06;2581781;22;20326;-80
2021/09/23 01:33:17;;;;;;;8.30;4.10;;;;;;;3.44;100.00;93735.88;2581963;22;20520;-84
2021/09/23 01:34:19;;;;;;;9.13;3.67;;;;;;;3.41;100.00;93733.94;2581711;22;20007;-82
2021/09/23 01:35:20;;;;;;;7.00;3.55;;;;;;;3.43;100.00;93737.00;2569296;23;20004;-81
2021/09/23 01:36:21;;;;;;;5.68;3.60;;;;;;;3.46;100.00;93733.63;2556316;23;20471;-77
2021/09/23 01:37:23;;;;;;;6.03;3.47;;;;;;;3.42;100.00;93738.09;2581558;22;20070;-78
2021/09/23 01:38:24;;;;;;;4.63;3.67;;;;;;;3.36;100.00;93726.31;2581560;23;20059;-77
2021/09/23 01:39:27;;;;;;;6.07;3.58;;;;;;;3.38;100.00;93724.09;2556976;23;20004;-81
2021/09/23 01:40:28;;;;;;;4.78;3.72;;;;;;;3.28;100.00;93725.44;2582046;22;20011;-77
2021/09/23 01:41:29;;;;;;;8.20;3.78;;;;;;;3.30;100.00;93726.97;2581228;23;20430;-78
2021/09/23 01:42:30;;;;;;;5.38;3.70;;;;;;;3.34;100.00;93725.91;2568986;22;20011;-79
2021/09/23 01:43:31;;;;;;;6.25;3.67;;;;;;;3.34;100.00;93719.88;2581375;22;20024;-82
2021/09/23 01:44:32;;;;;;;6.25;4.18;;;;;;;3.31;100.00;93723.97;2581608;23;20018;-76
2021/09/23 01:45:34;;;;;;;5.07;3.35;;;;;;;3.38;100.00;93721.44;2569263;22;20001;-78
2021/09/23 01:46:35;;;;;;;7.90;3.50;;;;;;;3.44;100.00;93727.19;2594359;22;19996;-80
2021/09/23 01:47:35;;;;;;;4.05;3.65;;;;;;;3.37;100.00;93725.19;2594784;22;20008;-79
2021/09/23 01:48:36;;;;;;;4.13;3.72;;;;;;;3.31;100.00;93723.97;2594093;22;19999;-78
2021/09/23 01:49:37;;;;;;;4.13;3.50;;;;;;;3.34;100.00;93730.44;2594321;22;20346;-77
2021/09/23 01:50:39;;;;;;;3.58;3.05;;;;;;;3.36;100.00;93731.59;2593553;22;20394;-81
2021/09/23 01:51:40;;;;;;;6.32;3.10;;;;;;;3.36;100.00;93733.47;2581727;22;19999;-80
2021/09/23 01:52:40;;;;;;;7.70;4.18;;;;;;;3.22;100.00;93734.03;2581521;22;20004;-76
2021/09/23 01:53:42;;;;;;;4.97;3.38;;;;;;;3.21;100.00;93727.97;2581410;23;20443;-77
2021/09/23 01:54:42;;;;;;;5.75;3.35;;;;;;;3.22;100.00;93732.13;2581759;22;20008;-77
2021/09/23 01:55:43;;;;;;;4.50;3.75;;;;;;;3.24;100.00;93727.25;2581764;22;20004;-78
2021/09/23 01:56:44;;;;;;;6.45;3.63;;;;;;;3.30;100.00;93714.53;2594530;22;20006;-77
2021/09/23 01:57:45;;;;;;;4.85;3.67;;;;;;;3.17;100.00;93726.41;2593819;22;20007;-76
2021/09/23 01:58:46;;;;;;;4.05;3.65;;;;;;;3.23;100.00;93732.91;2581662;23;20004;-77
2021/09/23 01:59:47;;;;;;;4.30;3.42;;;;;;;3.15;100.00;93720.69;2568999;23;20000;-77
2021/09/23 02:00:48;;;;;;;4.95;3.78;;;;;;;3.26;100.00;93722.38;2581401;22;20419;-76
2021/09/23 02:01:49;;;;;;;4.72;3.92;;;;;;;3.27;100.00;93718.63;2594027;22;20031;-78
2021/09/23 02:02:51;;;;;;;6.63;3.78;;;;;;;3.28;100.00;93717.50;2581202;22;20015;-79
2021/09/23 02:03:51;;;;;;;4.25;3.30;;;;;;;3.18;100.00;93717.34;2594306;22;20093;-77
2021/09/23 02:04:54;;;;;;;5.15;3.67;;;;;;;3.29;100.00;93715.63;2581368;23;20000;-76
2021/09/23 02:05:55;;;;;;;4.22;3.30;;;;;;;3.30;100.00;93705.84;2582170;22;20308;-78
2021/09/23 02:06:56;;;;;;;3.88;3.47;;;;;;;3.22;100.00;93703.06;2581714;23;20153;-81
2021/09/23 02:07:57;;;;;;;6.35;4.25;;;;;;;3.17;100.00;93698.09;2556569;23;20005;-78
2021/09/23 02:08:58;;;;;;;5.07;3.38;;;;;;;3.22;100.00;93708.38;2569154;22;20007;-80
2021/09/23 02:09:59;;;;;;;5.35;3.67;;;;;;;3.15;100.00;93704.84;2568793;23;20452;-79
2021/09/23 02:11:00;;;;;;;3.92;3.08;;;;;;;3.20;100.00;93699.25;2568758;23;20020;-78
2021/09/23 02:12:02;;;;;;;6.00;3.67;;;;;;;3.17;100.00;93702.63;2556768;23;20009;-77
2021/09/23 02:13:03;;;;;;;6.00;3.50;;;;;;;3.18;100.00;93704.91;2581614;22;20102;-76
2021/09/23 02:14:05;;;;;;;4.82;3.60;;;;;;;3.28;100.00;93708.81;2594950;22;20006;-75
2021/09/23 02:15:07;;;;;;;4.32;3.35;;;;;;;3.19;100.00;93705.66;2594039;22;20000;-78
2021/09/23 02:16:08;;;;;;;4.50;3.42;;;;;;;3.18;100.00;93704.13;2581377;23;20004;-79
2021/09/23 02:17:09;;;;;;;5.63;3.75;;;;;;;3.10;100.00;93705.13;2569121;22;20024;-81
2021/09/23 02:18:10;;;;;;;4.55;3.63;;;;;;;3.21;100.00;93703.44;2581210;22;20012;-80
2021/09/23 02:19:11;;;;;;;4.20;3.70;;;;;;;3.11;100.00;93706.66;2581253;22;20058;-76
2021/09/23 02:20:12;;;;;;;4.13;3.60;;;;;;;3.15;100.00;93702.97;2593944;22;20497;-77
2021/09/23 02:21:13;;;;;;;3.60;3.22;;;;;;;3.06;100.00;93705.09;2594942;22;20027;-76
2021/09/23 02:22:14;;;;;;;4.07;3.22;;;;;;;3.03;100.00;93703.16;2595205;22;20019;-78
2021/09/23 02:23:15;;;;;;;5.88;3.50;;;;;;;2.97;100.00;93709.84;2594068;22;20031;-78
2021/09/23 02:24:16;;;;;;;4.63;3.85;;;;;;;3.11;100.00;93707.41;2581448;23;20000;-79
2021/09/23 02:25:17;;;;;;;5.65;3.83;;;;;;;3.05;100.00;93700.16;2568773;23;20032;-78
2021/09/23 02:26:18;;;;;;;5.15;3.70;;;;;;;3.05;100.00;93698.28;2569022;22;20118;-77
2021/09/23 02:27:20;;;;;;;4.80;3.60;;;;;;;2.98;100.00;93708.72;2581721;22;20438;-78
2021/09/23 02:28:21;;;;;;;4.60;3.30;;;;;;;3.00;100.00;93707.25;2581727;22;20507;-78
2021/09/23 02:29:22;;;;;;;4.68;3.28;;;;;;;3.10;100.00;93703.25;2594303;22;20419;-78
2021/09/23 02:30:24;;;;;;;4.22;3.20;;;;;;;2.97;100.00;93705.31;2594839;22;20035;-80
2021/09/23 02:31:25;;;;;;;7.38;3.55;;;;;;;3.02;100.00;93699.72;2595047;22;20039;-80
2021/09/23 02:32:26;;;;;;;5.07;3.22;;;;;;;3.03;100.00;93706.56;2581755;23;20004;-75
2021/09/23 02:33:27;;;;;;;4.13;3.00;;;;;;;2.99;100.00;93704.97;2568788;22;20000;-75
2021/09/23 02:34:27;;;;;;;4.90;3.55;;;;;;;3.02;100.00;93696.34;2581435;22;20033;-77
2021/09/23 02:35:28;;;;;;;5.63;3.50;;;;;;;3.06;100.00;93697.16;2581382;23;20024;-78
2021/09/23 02:36:29;;;;;;;4.05;3.50;;;;;;;3.00;100.00;93699.34;2581708;22;20007;-79
2021/09/23 02:37:30;;;;;;;4.65;3.22;;;;;;;2.94;100.00;93706.03;2594847;22;20011;-79
2021/09/23 02:38:31;;;;;;;5.07;3.15;;;;;;;3.03;100.00;93698.63;2593871;22;20003;-78
2021/09/23 02:39:36;;;;;;;4.68;3.35;;;;;;;3.03;100.00;93695.25;2581851;22;20352;-81
2021/09/23 02:40:37;;;;;;;4.63;3.47;;;;;;;3.04;100.00;93699.41;2594007;22;20077;-77
2021/09/23 02:41:38;;;;;;;3.88;3.38;;;;;;;2.98;100.00;93692.88;2581225;23;20004;-79
2021/09/23 02:42:39;;;;;;;4.10;2.92;;;;;;;2.90;100.00;93699.19;2580963;22;20075;-79
2021/09/23 02:43:40;;;;;;;5.05;3.28;;;;;;;2.96;100.00;93693.22;2593821;22;19996;-78
2021/09/23 02:44:41;;;;;;;5.47;3.70;;;;;;;2.88;100.00;93690.84;2581375;22;20024;-79
2021/09/23 02:45:42;;;;;;;3.75;3.20;;;;;;;2.89;100.00;93695.00;2581486;22;20132;-79
2021/09/23 02:46:42;;;;;;;7.18;3.80;;;;;;;2.83;100.00;93693.75;2568747;23;20072;-80
2021/09/23 02:47:43;;;;;;;7.10;3.80;;;;;;;2.83;100.00;93688.50;2568471;22;20001;-75
2021/09/23 02:48:44;;;;;;;5.57;3.45;;;;;;;2.81;100.00;93688.06;2581116;23;20015;-82
2021/09/23 02:49:45;;;;;;;5.32;3.00;;;;;;;2.87;100.00;93690.06;2593916;22;20034;-78
2021/09/23 02:50:46;;;;;;;4.57;3.42;;;;;;;2.88;100.00;93688.94;2581078;23;20000;-77
2021/09/23 02:51:47;;;;;;;7.13;3.45;;;;;;;2.91;100.00;93685.63;2581583;22;20055;-79
2021/09/23 02:52:49;;;;;;;4.45;3.22;;;;;;;2.91;100.00;93684.84;2593994;22;20454;-78
2021/09/23 02:53:50;;;;;;;6.10;3.30;;;;;;;2.88;100.00;93683.66;2581150;22;20413;-77
2021/09/23 02:54:50;;;;;;;5.13;3.10;;;;;;;2.88;100.00;93683.66;2594062;22;20469;-78
2021/09/23 02:55:51;;;;;;;4.57;3.50;;;;;;;2.87;100.00;93682.16;2593862;22;20051;-76
2021/09/23 02:56:52;;;;;;;3.63;3.25;;;;;;;2.82;100.00;93676.41;2568910;23;20013;-76
2021/09/23 02:57:53;;;;;;;6.38;3.45;;;;;;;2.84;100.00;93679.44;2581517;22;20000;-81
2021/09/23 02:58:54;;;;;;;3.53;3.13;;;;;;;2.88;100.00;93682.91;2594672;22;20000;-76
2021/09/23 02:59:55;;;;;;;6.18;3.35;;;;;;;2.79;100.00;93675.22;2581606;23;20004;-77
2021/09/23 03:00:56;;;;;;;3.78;3.38;;;;;;;2.84;100.00;93680.22;2557209;23;20012;-76
2021/09/23 03:01:57;;;;;;;4.85;3.42;;;;;;;2.80;100.00;93679.38;2569984;22;20397;-78
2021/09/23 03:02:58;;;;;;;3.63;3.28;;;;;;;2.81;100.00;93667.72;2581977;22;20007;-80
2021/09/23 03:03:59;;;;;;;4.07;3.60;;;;;;;2.79;100.00;93680.50;2569430;23;20082;-77
2021/09/23 03:05:00;;;;;;;3.67;3.05;;;;;;;2.87;100.00;93674.22;2582290;22;20000;-78
2021/09/23 03:06:01;;;;;;;3.88;3.15;;;;;;;2.93;100.00;93667.53;2582090;23;20000;-78
2021/09/23 03:07:02;;;;;;;6.38;3.20;;;;;;;2.87;100.00;93676.88;2582143;22;20095;-80
2021/09/23 03:08:04;;;;;;;5.20;3.45;;;;;;;2.91;100.00;93676.94;2582183;22;20171;-80
2021/09/23 03:09:05;;;;;;;4.15;3.00;;;;;;;2.89;100.00;93673.88;2569644;23;20087;-78
2021/09/23 03:10:06;;;;;;;5.90;3.63;;;;;;;2.80;100.00;93679.38;2581926;22;19999;-78
2021/09/23 03:11:07;;;;;;;4.13;3.05;;;;;;;2.77;100.00;93680.88;2595523;22;20427;-77
2021/09/23 03:12:08;;;;;;;3.22;2.88;;;;;;;2.67;100.00;93688.59;2595483;22;20035;-81
2021/09/23 03:13:09;;;;;;;3.63;3.30;;;;;;;2.72;100.00;93678.53;2594506;22;20291;-76
2021/09/23 03:14:10;;;;;;;3.53;3.05;;;;;;;2.71;100.00;93676.22;2569350;23;20011;-78
2021/09/23 03:15:11;;;;;;;3.25;2.92;;;;;;;2.75;100.00;93677.81;2569774;22;20007;-82
2021/09/23 03:16:11;;;;;;;5.65;3.17;;;;;;;2.69;100.00;93673.19;2582395;22;20041;-82
2021/09/23 03:17:12;;;;;;;4.13;3.25;;;;;;;2.74;100.00;93683.44;2582056;22;20004;-78
2021/09/23 03:18:14;;;;;;;3.55;3.00;;;;;;;2.75;100.00;93677.81;2581810;22;20034;-79
2021/09/23 03:19:15;;;;;;;3.05;2.53;;;;;;;2.69;100.00;93681.09;2581927;23;20019;-77
2021/09/23 03:20:16;;;;;;;4.00;3.10;;;;;;;2.63;100.00;93680.59;2582444;22;20092;-75
2021/09/23 03:21:19;;;;;;;3.65;2.90;;;;;;;2.66;100.00;93687.81;2584666;23;20008;-76
2021/09/23 03:22:20;;;;;;;6.00;2.75;;;;;;;2.74;100.00;93678.91;2573183;22;20032;-79
2021/09/23 03:23:22;;;;;;;3.38;3.05;;;;;;;2.74;100.00;93686.84;2583041;22;20016;-81
2021/09/23 03:24:23;;;;;;;4.72;3.20;;;;;;;2.71;100.00;93682.25;2569344;23;20043;-81
2021/09/23 03:25:24;;;;;;;5.25;3.25;;;;;;;2.65;100.00;93691.59;2581957;22;20446;-75
2021/09/23 03:26:25;;;;;;;3.63;3.05;;;;;;;2.74;100.00;93684.19;2595928;22;20352;-78
2021/09/23 03:27:26;;;;;;;4.50;3.17;;;;;;;2.73;100.00;93690.59;2594480;22;20209;-78
2021/09/23 03:28:27;;;;;;;5.03;3.33;;;;;;;2.70;100.00;93685.25;2582086;22;20012;-80
2021/09/23 03:29:28;;;;;;;4.60;3.00;;;;;;;2.77;100.00;93690.66;2581587;22;20371;-76
2021/09/23 03:30:29;;;;;;;2.85;2.65;;;;;;;2.76;100.00;93684.59;2594783;22;19995;-78
2021/09/23 03:31:32;;;;;;;3.85;2.97;;;;;;;2.72;100.00;93686.44;2581965;23;20105;-78
2021/09/23 03:32:33;;;;;;;4.18;3.05;;;;;;;2.63;100.00;93690.41;2582517;22;20008;-79
2021/09/23 03:33:34;;;;;;;3.22;2.72;;;;;;;2.73;100.00;93681.91;2582062;23;20008;-82
2021/09/23 03:34:35;;;;;;;4.35;3.50;;;;;;;2.75;100.00;93677.03;2569341;22;20338;-77
2021/09/23 03:35:36;;;;;;;4.30;3.33;;;;;;;2.68;100.00;93677.69;2594559;22;20053;-78
2021/09/23 03:36:37;;;;;;;3.42;3.13;;;;;;;2.67;100.00;93680.66;2594705;22;20022;-76
2021/09/23 03:37:38;;;;;;;3.38;2.80;;;;;;;2.72;100.00;93672.47;2581793;23;20000;-80
2021/09/23 03:38:41;;;;;;;4.90;3.20;;;;;;;2.66;100.00;93685.19;2582173;22;19996;-77
2021/09/23 03:39:42;;;;;;;3.63;2.95;;;;;;;2.52;100.00;93667.25;2594312;22;20008;-76
2021/09/23 03:40:48;;;;;;;7.22;3.35;;;;;;;2.54;100.00;93677.44;2594561;22;20011;-81
2021/09/23 03:41:49;;;;;;;4.55;2.95;;;;;;;2.61;100.00;93666.25;2583027;22;20004;-80
2021/09/23 03:42:50;;;;;;;3.00;2.55;;;;;;;2.63;100.00;93666.66;2582075;23;20024;-82
2021/09/23 03:43:51;;;;;;;5.05;3.42;;;;;;;2.51;100.00;93665.72;2582097;22;20514;-79
2021/09/23 03:44:52;;;;;;;4.43;2.92;;;;;;;2.65;100.00;93664.44;2581742;22;20438;-76
2021/09/23 03:45:56;;;;;;;3.53;3.10;;;;;;;2.54;100.00;93666.88;2569416;23;20443;-78
2021/09/23 03:46:57;;;;;;;4.93;3.50;;;;;;;2.59;100.00;93661.34;2570757;22;20004;-81
2021/09/23 03:47:58;;;;;;;4.43;3.15;;;;;;;2.60;100.00;93659.47;2582027;22;20368;-76
2021/09/23 03:48:59;;;;;;;4.00;3.25;;;;;;;2.67;100.00;93659.56;2594473;22;20000;-77
2021/09/23 03:50:03;;;;;;;4.15;3.58;;;;;;;2.70;100.00;93659.63;2594176;22;20033;-78
2021/09/23 03:51:04;;;;;;;6.60;3.47;;;;;;;2.50;100.00;93661.56;2581980;22;20007;-81
2021/09/23 03:52:05;;;;;;;7.15;3.25;;;;;;;2.63;100.00;93661.38;2582183;23;20099;-75
2021/09/23 03:53:06;;;;;;;5.32;2.90;;;;;;;2.67;100.00;93654.28;2594609;22;20008;-79
2021/09/23 03:54:07;;;;;;;3.45;3.15;;;;;;;2.63;100.00;93653.44;2594531;22;20058;-80
2021/09/23 03:55:08;;;;;;;4.55;3.20;;;;;;;2.69;100.00;93654.69;2568940;23;20080;-79
2021/09/23 03:56:12;;;;;;;6.97;2.97;;;;;;;2.74;100.00;93652.53;2569825;22;20023;-79
2021/09/23 03:57:13;;;;;;;5.13;3.42;;;;;;;2.67;100.00;93655.03;2582460;22;20500;-77
2021/09/23 03:58:14;;;;;;;5.38;3.67;;;;;;;2.61;100.00;93651.19;2582056;22;20830;-79
2021/09/23 03:59:15;;;;;;;6.07;3.72;;;;;;;2.59;100.00;93645.50;2594585;22;20007;-77
2021/09/23 04:00:22;;;;;;;6.00;3.47;;;;;;;2.67;100.00;93636.56;2594804;22;20038;-77
2021/09/23 04:01:23;;;;;;;6.82;3.58;;;;;;;2.71;100.00;93641.91;2595535;22;20010;-75
2021/09/23 04:02:24;;;;;;;4.60;3.70;;;;;;;2.75;100.00;93640.09;2594644;22;20083;-79
2021/09/23 04:03:25;;;;;;;5.63;3.22;;;;;;;2.72;100.00;93640.78;2594343;22;20010;-77
2021/09/23 04:04:27;;;;;;;6.50;4.28;;;;;;;2.73;100.00;93639.69;2595341;22;20105;-80
2021/09/23 04:05:29;;;;;;;5.20;3.42;;;;;;;2.80;100.00;93639.78;2595371;22;20365;-79
2021/09/23 04:06:30;;;;;;;3.28;2.97;;;;;;;2.70;100.00;93637.75;2581703;23;20050;-76
2021/09/23 04:07:31;;;;;;;3.42;3.10;;;;;;;2.70;100.00;93643.03;2569667;22;20004;-78
2021/09/23 04:08:32;;;;;;;4.88;3.10;;;;;;;2.67;100.00;93638.44;2582093;22;19996;-78
2021/09/23 04:09:33;;;;;;;4.43;2.90;;;;;;;2.64;100.00;93631.25;2581652;22;20090;-79
2021/09/23 04:10:33;;;;;;;3.03;2.28;;;;;;;2.74;100.00;93628.00;2568818;23;20066;-78
2021/09/23 04:11:35;;;;;;;3.90;2.83;;;;;;;2.71;100.00;93628.72;2581775;22;20000;-79
2021/09/23 04:12:36;;;;;;;5.00;2.30;;;;;;;2.75;100.00;93629.53;2594128;22;20385;-78
2021/09/23 04:13:37;;;;;;;3.00;2.70;;;;;;;2.73;100.00;93631.78;2593970;22;20003;-75
2021/09/23 04:14:38;;;;;;;2.50;2.30;;;;;;;2.65;100.00;93640.69;2569107;23;20007;-77
2021/09/23 04:15:39;;;;;;;2.63;2.40;;;;;;;2.72;100.00;93635.50;2569424;23;20039;-76
2021/09/23 04:16:40;;;;;;;5.22;2.50;;;;;;;2.79;100.00;93633.00;2582366;22;20406;-80
2021/09/23 04:17:41;;;;;;;2.42;2.22;;;;;;;2.69;100.00;93629.06;2581616;22;20033;-77
2021/09/23 04:18:42;;;;;;;3.35;2.53;;;;;;;2.67;100.00;93627.88;2581548;23;20492;-78
2021/09/23 04:19:43;;;;;;;2.72;2.42;;;;;;;2.67;100.00;93626.00;2581727;23;20084;-76
2021/09/23 04:20:45;;;;;;;2.60;2.40;;;;;;;2.56;100.00;93621.69;2581304;22;20004;-76
2021/09/23 04:21:46;;;;;;;3.00;2.20;;;;;;;2.57;100.00;93617.94;2594367;22;20494;-78
2021/09/23 04:22:48;;;;;;;2.28;2.08;;;;;;;2.50;100.00;93615.91;2594512;22;20023;-79
2021/09/23 04:23:49;;;;;;;4.03;2.10;;;;;;;2.50;100.00;93611.44;2594680;22;20014;-80
2021/09/23 04:24:50;;;;;;;2.20;2.00;;;;;;;2.52;100.00;93611.06;2594024;22;20003;-78
2021/09/23 04:25:52;;;;;;;2.20;1.88;;;;;;;2.49;100.00;93611.75;2581802;22;20458;-78
2021/09/23 04:26:53;;;;;;;2.42;2.20;;;;;;;2.50;100.00;93611.44;2581847;23;20008;-79
2021/09/23 04:27:54;;;;;;;2.10;2.00;;;;;;;2.53;100.00;93615.22;2569223;23;20004;-77
2021/09/23 04:28:55;;;;;;;2.15;1.95;;;;;;;2.50;100.00;93610.66;2594524;22;19999;-78
2021/09/23 04:29:56;;;;;;;3.13;2.00;;;;;;;2.43;100.00;93611.31;2594331;22;20092;-78
2021/09/23 04:30:57;;;;;;;2.10;2.00;;;;;;;2.45;100.00;93616.22;2581383;23;20443;-77
2021/09/23 04:31:58;;;;;;;2.30;2.10;;;;;;;2.42;100.00;93612.41;2569271;22;20408;-77
2021/09/23 04:32:59;;;;;;;2.20;2.00;;;;;;;2.51;100.00;93626.16;2581669;22;20008;-77
2021/09/23 04:34:01;;;;;;;2.38;2.17;;;;;;;2.47;100.00;93627.97;2568991;23;20008;-79
2021/09/23 04:35:02;;;;;;;2.28;2.08;;;;;;;2.40;100.00;93627.06;2568734;22;20028;-78
2021/09/23 04:36:03;;;;;;;1.77;1.67;;;;;;;2.48;100.00;93636.63;2594719;22;20000;-79
2021/09/23 04:37:05;;;;;;;4.38;2.13;;;;;;;2.47;100.00;93638.50;2594282;22;20003;-79
2021/09/23 04:38:06;;;;;;;3.55;2.10;;;;;;;2.37;100.00;93636.47;2569402;23;20007;-79
2021/09/23 04:39:07;;;;;;;3.20;1.98;;;;;;;2.36;100.00;93634.91;2581592;22;20020;-78
2021/09/23 04:40:09;;;;;;;2.70;1.90;;;;;;;2.30;100.00;93636.31;2581070;23;20331;-79
2021/09/23 04:41:11;;;;;;;2.20;2.00;;;;;;;2.35;100.00;93633.38;2569238;23;20043;-81
2021/09/23 04:42:12;;;;;;;4.53;2.08;;;;;;;2.40;100.00;93627.81;2579812;22;20019;-77
2021/09/23 04:43:13;;;;;;;2.92;2.10;;;;;;;2.29;100.00;93632.16;2592251;22;20003;-81
2021/09/23 04:44:14;;;;;;;3.53;2.53;;;;;;;2.43;100.00;93626.38;2591856;22;20004;-79
2021/09/23 04:45:15;;;;;;;2.60;2.40;;;;;;;2.33;100.00;93624.28;2579519;22;20431;-77
2021/09/23 04:46:24;;;;;;;2.20;2.00;;;;;;;2.45;100.00;93613.56;2579320;22;20444;-81
2021/09/23 04:47:25;;;;;;;3.38;2.22;;;;;;;2.37;100.00;93620.63;2591853;22;20510;-81
2021/09/23 04:48:26;;;;;;;3.72;2.20;;;;;;;2.31;100.00;93616.75;2578613;22;20380;-78
2021/09/23 04:49:27;;;;;;;3.83;2.75;;;;;;;2.23;100.00;93615.09;2579582;23;20007;-80
2021/09/23 04:50:27;;;;;;;4.75;2.33;;;;;;;2.20;100.00;93608.66;2566653;23;20367;-81